createdAt,value
2019-04-28T00:02:08.573Z,16.27
2019-04-28T00:04:39.034Z,17.00
2019-04-28T00:07:09.555Z,15.05
2019-04-28T05:32:20.878Z,25.07
2019-04-28T05:34:52.956Z,29.32
2019-04-28T05:37:23.612Z,20.55
2019-04-28T05:39:54.112Z,22.27
2019-04-28T05:42:24.642Z,22.73
2019-04-28T05:45:14.333Z,21.35
2019-04-28T05:47:44.780Z,21.42
2019-04-28T05:53:37.394Z,20.85
2019-04-28T05:56:15.880Z,20.50
2019-04-28T05:58:52.852Z,22.93
2019-04-28T06:01:51.526Z,21.52
2019-04-28T06:04:25.522Z,17.60
2019-04-28T06:07:00.319Z,21.97
2019-04-28T06:09:35.678Z,24.40
2019-04-28T06:12:10.191Z,20.00
2019-04-28T06:14:40.588Z,23.95
2019-04-28T06:17:11.061Z,21.10
2019-04-28T06:19:41.659Z,20.10
2019-04-28T06:22:12.000Z,19.25
2019-04-28T06:24:42.489Z,17.57
2019-04-28T06:27:13.036Z,19.00
2019-04-28T06:29:43.494Z,19.50
2019-04-28T06:32:13.972Z,23.05
2019-04-28T06:34:44.503Z,30.00
2019-04-28T06:37:14.887Z,22.30
2019-04-28T06:39:47.303Z,18.48
2019-04-28T06:42:17.682Z,17.23
2019-04-28T06:44:48.197Z,19.42
2019-04-28T06:47:18.693Z,22.57
2019-04-28T06:49:49.211Z,22.05
2019-04-28T06:52:19.672Z,22.40
2019-04-28T06:54:50.165Z,23.65
2019-04-28T06:57:20.735Z,23.00
2019-04-28T06:59:51.216Z,20.95
2019-04-28T07:02:21.689Z,21.62
2019-04-28T07:05:01.632Z,18.85
2019-04-28T07:07:24.428Z,21.37
2019-04-28T07:09:54.902Z,21.45
2019-04-28T07:12:25.431Z,19.90
2019-04-28T07:14:55.928Z,20.57
2019-04-28T07:17:26.401Z,20.50
2019-04-28T07:20:04.600Z,15.70
2019-04-28T07:22:35.095Z,21.73
2019-04-28T07:25:05.594Z,19.85
2019-04-28T07:27:36.121Z,19.77
2019-04-28T07:30:07.358Z,20.95
2019-04-28T07:32:37.844Z,16.97
2019-04-28T07:35:08.389Z,21.37
2019-04-28T07:37:40.978Z,14.15
2019-04-28T07:40:11.559Z,14.25
2019-04-28T07:42:42.131Z,16.70
2019-04-28T07:45:12.688Z,13.40
2019-04-28T07:47:43.188Z,15.95
2019-04-28T07:50:13.803Z,16.27
2019-04-28T07:52:49.230Z,18.25
2019-04-28T07:55:19.730Z,15.88
2019-04-28T07:57:50.197Z,14.18
2019-04-28T08:00:27.320Z,15.50
2019-04-28T08:02:57.852Z,19.20
2019-04-28T08:05:28.290Z,19.90
2019-04-28T08:07:58.806Z,18.17
2019-04-28T08:10:29.338Z,15.90
2019-04-28T08:12:59.821Z,19.98
2019-04-28T08:15:30.327Z,21.83
2019-04-28T08:18:00.786Z,22.00
2019-04-28T08:20:31.182Z,21.77
2019-04-28T08:23:01.668Z,23.42
2019-04-28T08:25:32.220Z,13.75
2019-04-28T08:28:02.831Z,16.17
2019-04-28T08:30:33.754Z,19.73
2019-04-28T08:33:15.598Z,14.30
2019-04-28T08:35:46.106Z,19.12
2019-04-28T08:38:16.613Z,14.70
2019-04-28T08:40:47.016Z,20.20
2019-04-28T08:43:17.557Z,19.07
2019-04-28T08:45:48.023Z,16.43
2019-04-28T08:48:18.535Z,19.87
2019-04-28T08:50:49.041Z,22.15
2019-04-28T08:53:19.563Z,17.87
2019-04-28T08:55:50.064Z,17.27
2019-04-28T08:58:20.581Z,19.82
2019-04-28T09:00:51.109Z,15.43
2019-04-28T09:03:21.591Z,18.55
2019-04-28T09:05:52.190Z,13.93
2019-04-28T09:08:22.632Z,20.72
2019-04-28T09:10:53.090Z,18.98
2019-04-28T09:13:23.566Z,16.07
2019-04-28T09:15:53.953Z,18.95
2019-04-28T09:18:24.471Z,19.12
2019-04-28T09:20:54.971Z,22.17
2019-04-28T09:23:25.468Z,18.55
2019-04-28T09:25:55.928Z,14.23
2019-04-28T09:28:26.418Z,23.18
2019-04-28T09:30:56.883Z,18.27
2019-04-28T09:33:27.334Z,20.17
2019-04-28T09:35:57.894Z,22.17
2019-04-28T09:38:28.354Z,18.10
2019-04-28T09:40:58.916Z,15.23
2019-04-28T09:43:47.324Z,27.55
2019-04-28T09:46:21.601Z,16.20
2019-04-28T09:48:52.134Z,17.87
2019-04-28T09:51:22.674Z,13.53
2019-04-28T09:53:53.158Z,14.40
2019-04-28T09:56:23.682Z,16.37
2019-04-28T09:58:54.153Z,13.30
2019-04-28T10:01:24.626Z,12.75
2019-04-28T10:03:55.103Z,15.03
2019-04-28T10:06:25.601Z,18.80
2019-04-28T10:08:56.085Z,13.48
2019-04-28T10:11:30.589Z,19.20
2019-04-28T10:13:58.910Z,16.82
2019-04-28T10:16:29.379Z,18.00
2019-04-28T10:18:59.917Z,15.13
2019-04-28T10:21:30.379Z,17.02
2019-04-28T10:24:00.867Z,15.32
2019-04-28T10:26:31.456Z,14.50
2019-04-28T10:29:01.983Z,12.68
2019-04-28T10:31:32.485Z,8.03
2019-04-28T10:34:04.754Z,9.85
2019-04-28T10:36:36.669Z,13.35
2019-04-28T10:39:43.746Z,9.08
2019-04-28T10:42:14.206Z,8.80
2019-04-28T10:44:46.374Z,15.20
2019-04-28T10:47:17.705Z,10.03
2019-04-28T10:49:48.288Z,9.90
2019-04-28T10:52:18.931Z,10.35
2019-04-28T10:54:49.427Z,10.57
2019-04-28T10:57:19.894Z,14.00
2019-04-28T10:59:50.470Z,9.28
2019-04-28T11:02:20.970Z,7.22
2019-04-28T11:05:13.517Z,11.50
2019-04-28T11:07:44.466Z,13.62
2019-04-28T11:10:20.118Z,15.78
2019-04-28T11:12:53.037Z,9.00
2019-04-28T11:15:33.746Z,7.35
2019-04-28T11:18:06.434Z,7.92
2019-04-28T11:20:36.950Z,12.63
2019-04-28T11:23:07.449Z,5.90
2019-04-28T11:25:38.028Z,10.25
2019-04-28T11:28:08.784Z,8.58
2019-04-28T11:30:39.253Z,9.57
2019-04-28T11:33:27.700Z,14.15
2019-04-28T11:35:58.290Z,11.43
2019-04-28T11:38:28.782Z,12.95
2019-04-28T11:40:59.300Z,8.80
2019-04-28T11:43:29.790Z,9.20
2019-04-28T11:46:00.277Z,8.58
2019-04-28T11:48:30.795Z,7.60
2019-04-28T11:51:01.384Z,9.25
2019-04-28T11:53:31.882Z,10.40
2019-04-28T11:56:02.389Z,5.15
2019-04-28T11:58:32.984Z,7.25
2019-04-28T12:01:03.814Z,3.30
2019-04-28T12:03:34.336Z,3.42
2019-04-28T12:06:04.916Z,8.05
2019-04-28T12:08:35.389Z,6.15
2019-04-28T12:11:23.541Z,5.50
2019-04-28T12:14:19.193Z,3.87
2019-04-28T12:17:17.588Z,10.63
2019-04-28T12:19:54.122Z,6.10
2019-04-28T12:22:24.725Z,4.97
2019-04-28T12:24:55.261Z,6.58
2019-04-28T12:27:25.778Z,4.37
2019-04-28T12:29:56.400Z,4.28
2019-04-28T12:32:26.867Z,3.17
2019-04-28T12:34:57.331Z,5.60
2019-04-28T12:37:27.891Z,4.62
2019-04-28T12:39:58.391Z,3.37
2019-04-28T12:42:28.821Z,7.67
2019-04-28T12:44:59.382Z,4.67
2019-04-28T12:47:29.843Z,8.78
2019-04-28T12:50:06.113Z,8.08
2019-04-28T12:52:36.699Z,5.55
2019-04-28T12:55:07.589Z,6.00
2019-04-28T12:57:38.109Z,3.57
2019-04-28T13:00:27.868Z,5.55
2019-04-28T13:03:20.321Z,3.13
2019-04-28T13:06:02.372Z,3.52
2019-04-28T13:08:23.778Z,9.10
2019-04-28T13:10:54.565Z,4.75
2019-04-28T13:13:25.046Z,4.85
2019-04-28T13:15:55.529Z,2.83
2019-04-28T13:18:26.065Z,4.50
2019-04-28T13:20:58.964Z,7.12
2019-04-28T13:23:28.806Z,4.80
2019-04-28T13:25:59.408Z,6.92
2019-04-28T13:28:29.896Z,7.95
2019-04-28T13:31:00.413Z,5.60
2019-04-28T13:33:30.935Z,5.50
2019-04-28T13:36:13.791Z,9.55
2019-04-28T13:38:33.632Z,5.55
2019-04-28T13:41:04.145Z,7.10
2019-04-28T13:43:34.816Z,4.75
2019-04-28T13:46:05.429Z,4.47
2019-04-28T13:48:35.920Z,5.40
2019-04-28T13:51:06.395Z,5.87
2019-04-28T13:53:36.870Z,7.33
2019-04-28T13:56:07.387Z,1.90
2019-04-28T13:58:47.118Z,2.80
2019-04-28T14:01:39.652Z,2.75
2019-04-28T14:04:41.290Z,2.40
2019-04-28T14:07:11.818Z,3.70
2019-04-28T14:09:42.335Z,29.95
2019-04-28T14:12:12.840Z,27.27
2019-04-28T14:14:43.433Z,6.28
2019-04-28T14:17:13.944Z,3.50
2019-04-28T14:19:44.424Z,7.00
2019-04-28T14:22:14.889Z,1.90
2019-04-28T14:24:45.357Z,3.30
2019-04-28T14:27:15.874Z,5.05
2019-04-28T14:29:46.445Z,2.80
2019-04-28T14:32:16.935Z,2.70
2019-04-28T14:34:47.480Z,2.30
2019-04-28T14:37:18.054Z,2.05
2019-04-28T14:39:48.549Z,3.50
2019-04-28T14:42:19.148Z,3.27
2019-04-28T14:44:49.681Z,3.70
2019-04-28T14:47:20.161Z,3.60
2019-04-28T14:49:50.632Z,2.17
2019-04-28T14:52:21.171Z,3.90
2019-04-28T14:54:51.670Z,2.02
2019-04-28T14:57:22.151Z,3.27
2019-04-28T14:59:52.648Z,2.20
2019-04-28T15:02:33.162Z,1.90
2019-04-28T15:05:17.140Z,2.50
2019-04-28T15:08:00.838Z,2.83
2019-04-28T15:10:50.273Z,2.40
2019-04-28T15:13:22.184Z,4.90
2019-04-28T15:15:52.727Z,2.80
2019-04-28T15:18:23.263Z,1.72
2019-04-28T15:20:53.701Z,2.53
2019-04-28T15:23:24.234Z,3.02
2019-04-28T15:25:54.828Z,74.03
2019-04-28T15:28:25.306Z,13.48
2019-04-28T15:30:55.790Z,2.20
2019-04-28T15:33:26.293Z,6.73
2019-04-28T15:35:56.731Z,1.43
2019-04-28T15:38:27.159Z,10.60
2019-04-28T15:40:57.723Z,3.50
2019-04-28T15:43:28.220Z,9.80
2019-04-28T15:45:58.674Z,1.43
2019-04-28T15:48:29.167Z,1.20
2019-04-28T15:50:59.626Z,3.53
2019-04-28T15:53:30.391Z,3.10
2019-04-28T15:56:15.937Z,2.20
2019-04-28T15:58:46.427Z,1.30
2019-04-28T16:01:16.921Z,2.67
2019-04-28T16:03:47.439Z,1.70
2019-04-28T16:06:17.933Z,23.07
2019-04-28T16:08:48.399Z,4.60
2019-04-28T16:11:18.915Z,3.00
2019-04-28T16:13:49.335Z,2.40
2019-04-28T16:16:19.869Z,1.63
2019-04-28T16:18:50.331Z,3.37
2019-04-28T16:21:20.898Z,1.87
2019-04-28T16:23:51.366Z,5.60
2019-04-28T16:26:23.075Z,3.30
2019-04-28T16:28:53.691Z,3.00
2019-04-28T16:31:24.247Z,3.67
2019-04-28T16:33:54.750Z,0.97
2019-04-28T16:36:25.243Z,1.20
2019-04-28T16:38:55.808Z,4.73
2019-04-28T16:41:31.410Z,0.87
2019-04-28T16:44:01.895Z,0.87
2019-04-28T16:46:32.357Z,2.80
2019-04-28T16:49:02.854Z,1.10
2019-04-28T16:51:33.353Z,1.10
2019-04-28T16:54:03.832Z,2.50
2019-04-28T16:56:59.409Z,2.50
2019-04-28T16:59:43.297Z,1.83
2019-04-28T17:02:23.064Z,1.13
2019-04-28T17:04:53.594Z,1.87
2019-04-28T17:07:24.058Z,1.43
2019-04-28T17:09:54.573Z,2.90
2019-04-28T17:12:25.071Z,1.40
2019-04-28T17:14:55.581Z,2.23
2019-04-28T17:17:26.099Z,1.53
2019-04-28T17:19:56.585Z,1.53
2019-04-28T17:22:27.063Z,4.25
2019-04-28T17:24:57.599Z,1.50
2019-04-28T17:27:28.034Z,2.00
2019-04-28T17:29:58.534Z,3.70
2019-04-28T17:32:29.098Z,4.80
2019-04-28T17:34:59.660Z,2.92
2019-04-28T17:37:30.147Z,1.85
2019-04-28T17:40:00.756Z,3.70
2019-04-28T17:42:31.235Z,4.08
2019-04-28T17:45:01.766Z,3.83
2019-04-28T17:47:32.334Z,2.53
2019-04-28T17:50:02.861Z,2.52
2019-04-28T17:52:33.425Z,3.50
2019-04-28T17:55:04.224Z,3.22
2019-04-28T17:57:34.714Z,3.70
2019-04-28T18:00:12.718Z,2.37
2019-04-28T18:03:02.750Z,3.10
2019-04-28T18:05:41.189Z,4.90
2019-04-28T18:08:20.807Z,4.67
2019-04-28T18:10:43.871Z,2.40
2019-04-28T18:13:14.879Z,5.95
2019-04-28T18:16:12.008Z,1.70
2019-04-28T18:18:45.441Z,3.22
2019-04-28T18:21:15.967Z,6.30
2019-04-28T18:23:46.459Z,2.05
2019-04-28T18:26:17.037Z,3.20
2019-04-28T18:28:47.592Z,1.50
2019-04-28T18:31:37.072Z,2.57
2019-04-28T18:34:25.376Z,2.47
2019-04-28T18:37:21.049Z,1.42
2019-04-28T18:40:25.697Z,1.47
2019-04-28T18:43:11.824Z,2.00
2019-04-28T18:45:42.380Z,3.17
2019-04-28T18:48:12.955Z,3.50
2019-04-28T18:50:43.513Z,3.60
2019-04-28T18:53:14.101Z,2.20
2019-04-28T18:55:44.604Z,2.10
2019-04-28T18:58:15.178Z,3.65
2019-04-28T19:00:52.360Z,4.37
2019-04-28T19:03:23.578Z,2.70
2019-04-28T19:05:54.345Z,1.80
2019-04-28T19:08:48.454Z,3.60
2019-04-28T19:11:18.654Z,1.57
2019-04-28T19:13:53.822Z,2.00
2019-04-28T19:16:41.945Z,3.10
2019-04-28T19:19:13.737Z,1.80
2019-04-28T19:21:54.618Z,1.52
2019-04-28T19:24:26.216Z,2.50
2019-04-28T19:26:56.719Z,3.10
2019-04-28T19:29:27.775Z,3.60
2019-04-28T19:31:58.292Z,5.03
2019-04-28T19:34:28.865Z,3.00
2019-04-28T19:36:59.445Z,3.52
2019-04-28T19:39:30.004Z,2.70
2019-04-28T19:42:00.546Z,1.80
2019-04-28T19:44:31.059Z,2.90
2019-04-28T19:47:01.560Z,2.30
2019-04-28T19:49:32.035Z,2.77
2019-04-28T19:52:02.530Z,4.62
2019-04-28T19:54:36.576Z,2.50
2019-04-28T19:57:12.723Z,2.50
2019-04-28T20:00:00.940Z,2.40
2019-04-28T20:02:34.237Z,4.12
2019-04-28T20:05:05.049Z,7.00
2019-04-28T20:07:35.660Z,4.50
2019-04-28T20:10:06.799Z,6.45
2019-04-28T20:12:37.259Z,3.75
2019-04-28T20:15:07.967Z,4.60
2019-04-28T20:17:38.494Z,4.72
2019-04-28T20:20:09.165Z,2.67
2019-04-28T20:22:39.633Z,2.70
2019-04-28T20:25:10.216Z,5.53
2019-04-28T20:27:40.734Z,6.87
2019-04-28T20:30:11.627Z,9.80
2019-04-28T20:32:46.656Z,7.67
2019-04-28T20:35:21.682Z,10.55
2019-04-28T20:38:13.976Z,12.68
2019-04-28T20:40:50.794Z,9.23
2019-04-28T20:43:22.085Z,6.50
2019-04-28T20:45:52.628Z,9.50
2019-04-28T20:48:23.019Z,5.93
2019-04-28T20:50:53.553Z,4.22
2019-04-28T20:53:24.024Z,4.10
2019-04-28T20:55:54.514Z,4.33
2019-04-28T20:58:24.976Z,3.80
2019-04-28T21:00:55.450Z,7.92
2019-04-28T21:03:25.997Z,2.87
2019-04-28T21:05:56.485Z,3.40
2019-04-28T21:08:26.952Z,3.60
2019-04-28T21:10:57.475Z,8.18
2019-04-28T21:13:28.025Z,8.13
2019-04-28T21:15:58.489Z,4.70
2019-04-28T21:18:29.099Z,4.15
2019-04-28T21:20:59.652Z,5.62
2019-04-28T21:23:30.238Z,3.85
2019-04-28T21:26:00.732Z,5.37
2019-04-28T21:28:31.247Z,7.50
2019-04-28T21:31:01.725Z,3.27
2019-04-28T21:33:32.217Z,3.30
2019-04-28T21:36:02.690Z,4.55
2019-04-28T21:38:33.172Z,3.47
2019-04-28T21:41:03.675Z,3.20
2019-04-28T21:43:59.049Z,3.30
2019-04-28T21:46:41.270Z,5.37
2019-04-28T21:49:21.284Z,2.83
2019-04-28T21:51:51.813Z,3.40
2019-04-28T21:54:22.313Z,5.30
2019-04-28T21:56:52.782Z,3.80
2019-04-28T21:59:23.282Z,4.50
2019-04-28T22:01:53.759Z,4.72
2019-04-28T22:04:24.221Z,5.53
2019-04-28T22:06:54.731Z,4.97
2019-04-28T22:09:25.348Z,3.80
2019-04-28T22:11:55.908Z,4.60
2019-04-28T22:14:26.412Z,10.63
2019-04-28T22:16:56.889Z,5.70
2019-04-28T22:19:27.355Z,5.78
2019-04-28T22:21:57.861Z,6.12
2019-04-28T22:24:36.837Z,5.57
2019-04-28T22:27:08.667Z,5.53
2019-04-28T22:29:39.188Z,5.00
2019-04-28T22:32:09.654Z,5.83
2019-04-28T22:34:40.170Z,4.80
2019-04-28T22:37:10.566Z,6.87
2019-04-28T22:39:41.060Z,6.70
2019-04-28T22:42:11.625Z,8.75
2019-04-28T22:44:42.109Z,6.60
2019-04-28T22:47:12.590Z,15.08
2019-04-28T22:49:43.077Z,9.33
2019-04-28T22:52:13.542Z,8.50
2019-04-28T22:55:02.962Z,7.15
2019-04-28T22:57:58.419Z,7.90
2019-04-28T23:00:52.575Z,9.78
2019-04-28T23:03:40.695Z,8.20
2019-04-28T23:06:11.163Z,10.38
2019-04-28T23:08:41.747Z,7.60
2019-04-28T23:11:12.249Z,12.68
2019-04-28T23:13:42.755Z,12.73
2019-04-28T23:16:13.362Z,13.25
2019-04-28T23:18:43.955Z,11.30
2019-04-28T23:21:35.359Z,14.80
2019-04-28T23:24:05.832Z,11.60
2019-04-28T23:26:36.298Z,11.75
2019-04-28T23:29:06.888Z,14.23
2019-04-28T23:31:37.357Z,12.68
2019-04-28T23:34:07.827Z,16.75
2019-04-28T23:36:38.418Z,12.28
2019-04-28T23:39:09.372Z,11.63
2019-04-28T23:41:55.243Z,15.80
2019-04-28T23:44:25.751Z,12.37
2019-04-28T23:46:59.852Z,13.83
2019-04-28T23:49:31.651Z,13.58
2019-04-28T23:52:19.956Z,14.93
2019-04-28T23:54:51.920Z,13.83
2019-04-28T23:57:22.412Z,10.78
2019-04-28T23:59:52.978Z,15.77
